Georgetown, South Carolina
Current Conditions -  °F | °C
As of 4:15 PM on Tuesday 21 Oct 2014 (Local Time) from KGGE Reporting Station
Clear Clear  
Wind Chill: 77°   Ceiling: Unl
Heat Index: 78°   Visibility: 10mi
Dew Point: 54°   Wind: 8mph
Humidity: 44%   Direction: 250°WSW
Pressure: 29.87"   Gusts: NA
Location:  33.37°N, 79.28°W
Report Text: KGGE 212015Z AUTO 25007KT 10SM CLR 25/12 A2987 RMK AO2
Loading
Personal Weather Stations






























Interactive Weather Map New forecast layout! Learn more

10-Day Weather Forecast

Advertisements
Track Severe Weather on mobile